sensor_id;sensor_type;location;lat;lon;timestamp;P1;durP1;ratioP1;P2;durP2;ratioP2
10641;SDS011;5369;49.586;8.646;2022-08-16T00:00:37;3.20;;;2.90;;
10641;SDS011;5369;49.586;8.646;2022-08-16T00:03:05;4.27;;;3.10;;
10641;SDS011;5369;49.586;8.646;2022-08-16T00:05:33;4.03;;;2.93;;
10641;SDS011;5369;49.586;8.646;2022-08-16T00:07:59;4.10;;;2.80;;
10641;SDS011;5369;49.586;8.646;2022-08-16T00:10:26;3.33;;;2.90;;
10641;SDS011;5369;49.586;8.646;2022-08-16T00:12:53;2.67;;;2.47;;
10641;SDS011;5369;49.586;8.646;2022-08-16T00:15:24;2.90;;;2.63;;
10641;SDS011;5369;49.586;8.646;2022-08-16T00:17:51;3.77;;;3.10;;
10641;SDS011;5369;49.586;8.646;2022-08-16T00:20:17;2.90;;;2.60;;
10641;SDS011;5369;49.586;8.646;2022-08-16T00:22:43;3.33;;;2.70;;
10641;SDS011;5369;49.586;8.646;2022-08-16T00:25:11;3.20;;;3.00;;
10641;SDS011;5369;49.586;8.646;2022-08-16T00:27:38;3.10;;;2.80;;
10641;SDS011;5369;49.586;8.646;2022-08-16T00:30:05;3.23;;;2.93;;
10641;SDS011;5369;49.586;8.646;2022-08-16T00:32:31;3.20;;;2.90;;
10641;SDS011;5369;49.586;8.646;2022-08-16T00:34:57;3.40;;;3.10;;
10641;SDS011;5369;49.586;8.646;2022-08-16T00:37:24;3.30;;;3.00;;
10641;SDS011;5369;49.586;8.646;2022-08-16T00:39:52;5.43;;;3.30;;
10641;SDS011;5369;49.586;8.646;2022-08-16T00:42:18;3.47;;;3.00;;
10641;SDS011;5369;49.586;8.646;2022-08-16T00:44:50;4.27;;;2.90;;
10641;SDS011;5369;49.586;8.646;2022-08-16T00:47:17;3.40;;;3.10;;
10641;SDS011;5369;49.586;8.646;2022-08-16T00:49:44;4.37;;;2.87;;
10641;SDS011;5369;49.586;8.646;2022-08-16T00:52:10;3.43;;;3.00;;
10641;SDS011;5369;49.586;8.646;2022-08-16T00:54:36;3.33;;;3.07;;
10641;SDS011;5369;49.586;8.646;2022-08-16T00:57:03;3.20;;;2.90;;
10641;SDS011;5369;49.586;8.646;2022-08-16T00:59:31;3.70;;;3.00;;
10641;SDS011;5369;49.586;8.646;2022-08-16T01:01:58;3.77;;;3.43;;
10641;SDS011;5369;49.586;8.646;2022-08-16T01:04:26;3.50;;;3.20;;
10641;SDS011;5369;49.586;8.646;2022-08-16T01:06:53;4.03;;;2.93;;
10641;SDS011;5369;49.586;8.646;2022-08-16T01:09:20;3.23;;;2.93;;
10641;SDS011;5369;49.586;8.646;2022-08-16T01:11:46;3.60;;;3.30;;
10641;SDS011;5369;49.586;8.646;2022-08-16T01:14:23;4.90;;;3.30;;
10641;SDS011;5369;49.586;8.646;2022-08-16T01:16:50;3.80;;;3.27;;
10641;SDS011;5369;49.586;8.646;2022-08-16T01:19:23;4.53;;;3.50;;
10641;SDS011;5369;49.586;8.646;2022-08-16T01:24:30;3.17;;;2.87;;
10641;SDS011;5369;49.586;8.646;2022-08-16T01:27:03;4.37;;;3.33;;
10641;SDS011;5369;49.586;8.646;2022-08-16T01:29:37;3.70;;;3.30;;
10641;SDS011;5369;49.586;8.646;2022-08-16T01:32:04;4.00;;;3.10;;
10641;SDS011;5369;49.586;8.646;2022-08-16T01:34:30;3.67;;;3.10;;
10641;SDS011;5369;49.586;8.646;2022-08-16T01:36:58;3.80;;;3.47;;
10641;SDS011;5369;49.586;8.646;2022-08-16T01:39:25;3.63;;;3.20;;
10641;SDS011;5369;49.586;8.646;2022-08-16T01:41:51;4.33;;;3.30;;
10641;SDS011;5369;49.586;8.646;2022-08-16T01:44:18;3.93;;;3.30;;
10641;SDS011;5369;49.586;8.646;2022-08-16T01:46:45;3.47;;;2.83;;
10641;SDS011;5369;49.586;8.646;2022-08-16T01:49:21;3.87;;;3.50;;
10641;SDS011;5369;49.586;8.646;2022-08-16T01:51:54;3.60;;;3.30;;
10641;SDS011;5369;49.586;8.646;2022-08-16T01:54:29;3.50;;;3.20;;
10641;SDS011;5369;49.586;8.646;2022-08-16T01:56:56;3.93;;;3.47;;
10641;SDS011;5369;49.586;8.646;2022-08-16T01:59:22;4.10;;;3.43;;
10641;SDS011;5369;49.586;8.646;2022-08-16T02:01:49;5.17;;;3.50;;
10641;SDS011;5369;49.586;8.646;2022-08-16T02:04:16;3.83;;;3.43;;
10641;SDS011;5369;49.586;8.646;2022-08-16T02:06:43;3.90;;;3.50;;
10641;SDS011;5369;49.586;8.646;2022-08-16T02:09:10;3.87;;;3.50;;
10641;SDS011;5369;49.586;8.646;2022-08-16T02:11:37;4.00;;;3.70;;
10641;SDS011;5369;49.586;8.646;2022-08-16T02:14:05;3.60;;;3.30;;
10641;SDS011;5369;49.586;8.646;2022-08-16T02:16:34;3.77;;;3.47;;
10641;SDS011;5369;49.586;8.646;2022-08-16T02:19:00;4.70;;;3.60;;
10641;SDS011;5369;49.586;8.646;2022-08-16T02:21:27;4.07;;;3.57;;
10641;SDS011;5369;49.586;8.646;2022-08-16T02:23:54;4.13;;;3.57;;
10641;SDS011;5369;49.586;8.646;2022-08-16T02:26:20;4.37;;;3.97;;
10641;SDS011;5369;49.586;8.646;2022-08-16T02:28:47;4.03;;;3.63;;
10641;SDS011;5369;49.586;8.646;2022-08-16T02:31:13;4.00;;;3.60;;
10641;SDS011;5369;49.586;8.646;2022-08-16T02:33:41;4.00;;;3.70;;
10641;SDS011;5369;49.586;8.646;2022-08-16T02:36:10;4.27;;;3.87;;
10641;SDS011;5369;49.586;8.646;2022-08-16T02:38:37;4.17;;;3.73;;
10641;SDS011;5369;49.586;8.646;2022-08-16T02:41:05;4.40;;;3.70;;
10641;SDS011;5369;49.586;8.646;2022-08-16T02:43:32;5.17;;;4.03;;
10641;SDS011;5369;49.586;8.646;2022-08-16T02:46:01;4.33;;;3.93;;
10641;SDS011;5369;49.586;8.646;2022-08-16T02:48:28;4.30;;;3.90;;
10641;SDS011;5369;49.586;8.646;2022-08-16T02:50:56;5.17;;;4.23;;
10641;SDS011;5369;49.586;8.646;2022-08-16T02:53:22;4.53;;;4.13;;
10641;SDS011;5369;49.586;8.646;2022-08-16T02:55:48;4.20;;;3.90;;
10641;SDS011;5369;49.586;8.646;2022-08-16T02:58:14;4.80;;;4.40;;
10641;SDS011;5369;49.586;8.646;2022-08-16T03:00:41;4.40;;;4.00;;
10641;SDS011;5369;49.586;8.646;2022-08-16T03:03:07;5.00;;;4.50;;
10641;SDS011;5369;49.586;8.646;2022-08-16T03:05:34;4.77;;;4.27;;
10641;SDS011;5369;49.586;8.646;2022-08-16T03:08:00;6.20;;;4.17;;
10641;SDS011;5369;49.586;8.646;2022-08-16T03:10:31;5.07;;;4.23;;
10641;SDS011;5369;49.586;8.646;2022-08-16T03:12:57;4.33;;;4.00;;
10641;SDS011;5369;49.586;8.646;2022-08-16T03:15:27;6.53;;;4.47;;
10641;SDS011;5369;49.586;8.646;2022-08-16T03:17:54;4.90;;;4.27;;
10641;SDS011;5369;49.586;8.646;2022-08-16T03:20:23;4.80;;;4.40;;
10641;SDS011;5369;49.586;8.646;2022-08-16T03:22:49;4.70;;;4.30;;
10641;SDS011;5369;49.586;8.646;2022-08-16T03:25:15;5.70;;;4.40;;
10641;SDS011;5369;49.586;8.646;2022-08-16T03:27:56;4.77;;;4.37;;
10641;SDS011;5369;49.586;8.646;2022-08-16T03:30:24;5.33;;;4.67;;
10641;SDS011;5369;49.586;8.646;2022-08-16T03:32:55;5.53;;;4.63;;
10641;SDS011;5369;49.586;8.646;2022-08-16T03:35:29;4.63;;;4.23;;
10641;SDS011;5369;49.586;8.646;2022-08-16T03:37:57;5.00;;;4.47;;
10641;SDS011;5369;49.586;8.646;2022-08-16T03:40:27;4.90;;;4.40;;
10641;SDS011;5369;49.586;8.646;2022-08-16T03:42:53;5.13;;;4.60;;
10641;SDS011;5369;49.586;8.646;2022-08-16T03:45:21;5.17;;;4.77;;
10641;SDS011;5369;49.586;8.646;2022-08-16T03:47:52;4.87;;;4.30;;
10641;SDS011;5369;49.586;8.646;2022-08-16T03:50:18;5.47;;;4.23;;
10641;SDS011;5369;49.586;8.646;2022-08-16T03:52:44;4.87;;;4.30;;
10641;SDS011;5369;49.586;8.646;2022-08-16T03:55:12;4.77;;;4.37;;
10641;SDS011;5369;49.586;8.646;2022-08-16T03:57:39;7.00;;;4.70;;
10641;SDS011;5369;49.586;8.646;2022-08-16T04:00:12;5.30;;;4.90;;
10641;SDS011;5369;49.586;8.646;2022-08-16T04:02:40;5.17;;;4.67;;
10641;SDS011;5369;49.586;8.646;2022-08-16T04:05:12;5.20;;;4.70;;
10641;SDS011;5369;49.586;8.646;2022-08-16T04:07:39;5.83;;;5.20;;
10641;SDS011;5369;49.586;8.646;2022-08-16T04:10:06;5.20;;;4.67;;
10641;SDS011;5369;49.586;8.646;2022-08-16T04:12:33;5.53;;;4.97;;
10641;SDS011;5369;49.586;8.646;2022-08-16T04:15:00;5.03;;;4.63;;
10641;SDS011;5369;49.586;8.646;2022-08-16T04:17:27;5.63;;;5.00;;
10641;SDS011;5369;49.586;8.646;2022-08-16T04:19:55;4.73;;;4.30;;
10641;SDS011;5369;49.586;8.646;2022-08-16T04:22:22;5.40;;;4.90;;
10641;SDS011;5369;49.586;8.646;2022-08-16T04:24:54;6.50;;;5.20;;
10641;SDS011;5369;49.586;8.646;2022-08-16T04:27:21;5.87;;;5.37;;
10641;SDS011;5369;49.586;8.646;2022-08-16T04:29:47;6.43;;;5.30;;
10641;SDS011;5369;49.586;8.646;2022-08-16T04:32:15;5.20;;;4.70;;
10641;SDS011;5369;49.586;8.646;2022-08-16T04:34:43;5.40;;;4.90;;
10641;SDS011;5369;49.586;8.646;2022-08-16T04:37:09;6.17;;;5.43;;
10641;SDS011;5369;49.586;8.646;2022-08-16T04:39:40;7.27;;;5.63;;
10641;SDS011;5369;49.586;8.646;2022-08-16T04:42:06;5.27;;;4.77;;
10641;SDS011;5369;49.586;8.646;2022-08-16T04:44:33;5.80;;;4.90;;
10641;SDS011;5369;49.586;8.646;2022-08-16T04:47:00;5.40;;;4.90;;
10641;SDS011;5369;49.586;8.646;2022-08-16T04:49:27;5.37;;;4.87;;
10641;SDS011;5369;49.586;8.646;2022-08-16T04:51:54;5.93;;;5.20;;
10641;SDS011;5369;49.586;8.646;2022-08-16T04:54:21;6.90;;;5.20;;
10641;SDS011;5369;49.586;8.646;2022-08-16T04:56:47;6.87;;;5.40;;
10641;SDS011;5369;49.586;8.646;2022-08-16T04:59:14;5.83;;;5.33;;
10641;SDS011;5369;49.586;8.646;2022-08-16T05:01:40;5.90;;;5.33;;
10641;SDS011;5369;49.586;8.646;2022-08-16T05:04:06;5.90;;;5.30;;
10641;SDS011;5369;49.586;8.646;2022-08-16T05:06:38;5.60;;;5.07;;
10641;SDS011;5369;49.586;8.646;2022-08-16T05:09:04;6.13;;;5.57;;
10641;SDS011;5369;49.586;8.646;2022-08-16T05:11:31;6.50;;;5.67;;
10641;SDS011;5369;49.586;8.646;2022-08-16T05:13:57;6.43;;;5.33;;
10641;SDS011;5369;49.586;8.646;2022-08-16T05:16:26;8.10;;;5.50;;
10641;SDS011;5369;49.586;8.646;2022-08-16T05:19:00;5.80;;;5.30;;
10641;SDS011;5369;49.586;8.646;2022-08-16T05:21:31;6.00;;;5.40;;
10641;SDS011;5369;49.586;8.646;2022-08-16T05:23:59;8.27;;;5.67;;
10641;SDS011;5369;49.586;8.646;2022-08-16T05:26:28;5.53;;;5.03;;
10641;SDS011;5369;49.586;8.646;2022-08-16T05:28:55;5.80;;;5.20;;
10641;SDS011;5369;49.586;8.646;2022-08-16T05:31:23;6.27;;;5.67;;
10641;SDS011;5369;49.586;8.646;2022-08-16T05:33:49;8.93;;;5.87;;
10641;SDS011;5369;49.586;8.646;2022-08-16T05:36:16;6.97;;;5.97;;
10641;SDS011;5369;49.586;8.646;2022-08-16T05:38:46;6.30;;;5.70;;
10641;SDS011;5369;49.586;8.646;2022-08-16T05:41:13;7.87;;;5.37;;
10641;SDS011;5369;49.586;8.646;2022-08-16T05:43:42;7.17;;;6.10;;
10641;SDS011;5369;49.586;8.646;2022-08-16T05:46:09;7.03;;;6.23;;
10641;SDS011;5369;49.586;8.646;2022-08-16T05:48:36;6.70;;;6.00;;
10641;SDS011;5369;49.586;8.646;2022-08-16T05:51:06;8.27;;;6.70;;
10641;SDS011;5369;49.586;8.646;2022-08-16T05:53:33;7.70;;;6.30;;
10641;SDS011;5369;49.586;8.646;2022-08-16T05:56:08;6.27;;;5.77;;
10641;SDS011;5369;49.586;8.646;2022-08-16T05:58:38;7.00;;;6.17;;
10641;SDS011;5369;49.586;8.646;2022-08-16T06:01:06;8.10;;;6.50;;
10641;SDS011;5369;49.586;8.646;2022-08-16T06:03:34;8.27;;;7.20;;
10641;SDS011;5369;49.586;8.646;2022-08-16T06:06:08;6.93;;;6.27;;
10641;SDS011;5369;49.586;8.646;2022-08-16T06:08:36;7.93;;;6.63;;
10641;SDS011;5369;49.586;8.646;2022-08-16T06:11:02;7.30;;;6.60;;
10641;SDS011;5369;49.586;8.646;2022-08-16T06:13:28;7.57;;;6.97;;
10641;SDS011;5369;49.586;8.646;2022-08-16T06:15:54;6.70;;;6.10;;
10641;SDS011;5369;49.586;8.646;2022-08-16T06:18:22;7.00;;;6.20;;
10641;SDS011;5369;49.586;8.646;2022-08-16T06:20:48;6.10;;;5.60;;
10641;SDS011;5369;49.586;8.646;2022-08-16T06:23:18;7.53;;;5.90;;
10641;SDS011;5369;49.586;8.646;2022-08-16T06:25:54;6.87;;;6.13;;
10641;SDS011;5369;49.586;8.646;2022-08-16T06:28:23;6.73;;;6.13;;
10641;SDS011;5369;49.586;8.646;2022-08-16T06:30:49;6.87;;;6.00;;
10641;SDS011;5369;49.586;8.646;2022-08-16T06:33:16;6.70;;;5.87;;
10641;SDS011;5369;49.586;8.646;2022-08-16T06:35:44;6.03;;;5.43;;
10641;SDS011;5369;49.586;8.646;2022-08-16T06:38:14;6.87;;;6.13;;
10641;SDS011;5369;49.586;8.646;2022-08-16T06:40:40;7.60;;;5.80;;
10641;SDS011;5369;49.586;8.646;2022-08-16T06:43:06;8.97;;;6.67;;
10641;SDS011;5369;49.586;8.646;2022-08-16T06:45:38;7.30;;;6.30;;
10641;SDS011;5369;49.586;8.646;2022-08-16T06:48:13;8.33;;;6.60;;
10641;SDS011;5369;49.586;8.646;2022-08-16T06:50:40;8.50;;;5.97;;
10641;SDS011;5369;49.586;8.646;2022-08-16T06:53:07;6.97;;;5.80;;
10641;SDS011;5369;49.586;8.646;2022-08-16T06:55:35;7.43;;;5.83;;
10641;SDS011;5369;49.586;8.646;2022-08-16T06:58:06;9.53;;;6.23;;
10641;SDS011;5369;49.586;8.646;2022-08-16T07:00:33;7.03;;;5.57;;
10641;SDS011;5369;49.586;8.646;2022-08-16T07:03:04;8.30;;;6.40;;
10641;SDS011;5369;49.586;8.646;2022-08-16T07:05:31;8.03;;;6.37;;
10641;SDS011;5369;49.586;8.646;2022-08-16T07:08:07;7.43;;;6.13;;
10641;SDS011;5369;49.586;8.646;2022-08-16T07:10:34;6.77;;;5.43;;
10641;SDS011;5369;49.586;8.646;2022-08-16T07:13:00;9.10;;;6.03;;
10641;SDS011;5369;49.586;8.646;2022-08-16T07:15:27;6.83;;;5.70;;
10641;SDS011;5369;49.586;8.646;2022-08-16T07:17:53;8.67;;;5.97;;
10641;SDS011;5369;49.586;8.646;2022-08-16T07:20:19;9.63;;;6.43;;
10641;SDS011;5369;49.586;8.646;2022-08-16T07:22:51;7.97;;;6.00;;
10641;SDS011;5369;49.586;8.646;2022-08-16T07:25:23;7.37;;;6.40;;
10641;SDS011;5369;49.586;8.646;2022-08-16T07:27:50;8.13;;;6.43;;
10641;SDS011;5369;49.586;8.646;2022-08-16T07:30:20;6.20;;;5.60;;
10641;SDS011;5369;49.586;8.646;2022-08-16T07:32:47;6.60;;;5.57;;
10641;SDS011;5369;49.586;8.646;2022-08-16T07:35:15;7.40;;;5.90;;
10641;SDS011;5369;49.586;8.646;2022-08-16T07:37:42;9.47;;;5.90;;
10641;SDS011;5369;49.586;8.646;2022-08-16T07:40:14;7.10;;;5.37;;
10641;SDS011;5369;49.586;8.646;2022-08-16T07:42:43;6.27;;;5.63;;
10641;SDS011;5369;49.586;8.646;2022-08-16T07:45:09;7.30;;;5.80;;
10641;SDS011;5369;49.586;8.646;2022-08-16T07:47:37;9.80;;;5.93;;
10641;SDS011;5369;49.586;8.646;2022-08-16T07:50:03;6.57;;;5.83;;
10641;SDS011;5369;49.586;8.646;2022-08-16T07:52:30;6.00;;;5.43;;
10641;SDS011;5369;49.586;8.646;2022-08-16T07:54:57;7.03;;;5.47;;
10641;SDS011;5369;49.586;8.646;2022-08-16T07:57:23;5.90;;;5.33;;
10641;SDS011;5369;49.586;8.646;2022-08-16T07:59:51;7.50;;;5.40;;
10641;SDS011;5369;49.586;8.646;2022-08-16T08:02:18;6.60;;;5.60;;
10641;SDS011;5369;49.586;8.646;2022-08-16T08:04:44;6.73;;;5.90;;
10641;SDS011;5369;49.586;8.646;2022-08-16T08:07:10;9.33;;;5.20;;
10641;SDS011;5369;49.586;8.646;2022-08-16T08:09:37;6.20;;;5.60;;
10641;SDS011;5369;49.586;8.646;2022-08-16T08:12:04;6.67;;;6.07;;
10641;SDS011;5369;49.586;8.646;2022-08-16T08:14:36;6.30;;;5.67;;
10641;SDS011;5369;49.586;8.646;2022-08-16T08:17:04;8.23;;;6.00;;
10641;SDS011;5369;49.586;8.646;2022-08-16T08:19:32;7.23;;;6.20;;
10641;SDS011;5369;49.586;8.646;2022-08-16T08:21:59;7.23;;;6.50;;
10641;SDS011;5369;49.586;8.646;2022-08-16T08:24:34;7.10;;;6.10;;
10641;SDS011;5369;49.586;8.646;2022-08-16T08:27:03;7.00;;;6.37;;
10641;SDS011;5369;49.586;8.646;2022-08-16T08:29:32;8.10;;;6.67;;
10641;SDS011;5369;49.586;8.646;2022-08-16T08:31:59;7.37;;;6.37;;
10641;SDS011;5369;49.586;8.646;2022-08-16T08:34:25;10.43;;;6.30;;
10641;SDS011;5369;49.586;8.646;2022-08-16T08:36:52;7.63;;;6.60;;
10641;SDS011;5369;49.586;8.646;2022-08-16T08:39:28;8.30;;;6.77;;
10641;SDS011;5369;49.586;8.646;2022-08-16T08:41:54;8.20;;;5.90;;
10641;SDS011;5369;49.586;8.646;2022-08-16T08:44:21;6.53;;;5.93;;
10641;SDS011;5369;49.586;8.646;2022-08-16T08:46:48;7.70;;;6.00;;
10641;SDS011;5369;49.586;8.646;2022-08-16T08:49:14;7.37;;;6.20;;
10641;SDS011;5369;49.586;8.646;2022-08-16T08:51:42;7.07;;;6.13;;
10641;SDS011;5369;49.586;8.646;2022-08-16T08:54:12;6.50;;;5.90;;
10641;SDS011;5369;49.586;8.646;2022-08-16T08:56:41;6.30;;;5.63;;
10641;SDS011;5369;49.586;8.646;2022-08-16T08:59:28;7.33;;;5.80;;
10641;SDS011;5369;49.586;8.646;2022-08-16T09:01:55;7.07;;;5.87;;
10641;SDS011;5369;49.586;8.646;2022-08-16T09:04:22;7.70;;;5.80;;
10641;SDS011;5369;49.586;8.646;2022-08-16T09:06:49;6.77;;;5.93;;
10641;SDS011;5369;49.586;8.646;2022-08-16T09:09:18;6.73;;;5.93;;
10641;SDS011;5369;49.586;8.646;2022-08-16T09:11:50;9.23;;;6.77;;
10641;SDS011;5369;49.586;8.646;2022-08-16T09:14:16;9.07;;;6.50;;
10641;SDS011;5369;49.586;8.646;2022-08-16T09:16:43;7.30;;;6.60;;
10641;SDS011;5369;49.586;8.646;2022-08-16T09:19:09;6.47;;;5.87;;
10641;SDS011;5369;49.586;8.646;2022-08-16T09:21:36;6.90;;;6.30;;
10641;SDS011;5369;49.586;8.646;2022-08-16T09:24:02;6.80;;;6.10;;
10641;SDS011;5369;49.586;8.646;2022-08-16T09:26:29;6.57;;;5.97;;
10641;SDS011;5369;49.586;8.646;2022-08-16T09:28:55;8.60;;;6.63;;
10641;SDS011;5369;49.586;8.646;2022-08-16T09:31:22;7.03;;;6.37;;
10641;SDS011;5369;49.586;8.646;2022-08-16T09:33:49;9.20;;;6.70;;
10641;SDS011;5369;49.586;8.646;2022-08-16T09:36:17;8.57;;;6.67;;
10641;SDS011;5369;49.586;8.646;2022-08-16T09:38:44;6.70;;;6.10;;
10641;SDS011;5369;49.586;8.646;2022-08-16T09:41:10;7.80;;;7.00;;
10641;SDS011;5369;49.586;8.646;2022-08-16T09:43:36;10.20;;;6.60;;
10641;SDS011;5369;49.586;8.646;2022-08-16T09:46:04;7.40;;;6.70;;
10641;SDS011;5369;49.586;8.646;2022-08-16T09:48:31;6.70;;;5.63;;
10641;SDS011;5369;49.586;8.646;2022-08-16T09:50:58;6.63;;;5.57;;
10641;SDS011;5369;49.586;8.646;2022-08-16T09:53:24;6.53;;;5.50;;
10641;SDS011;5369;49.586;8.646;2022-08-16T09:55:52;8.73;;;5.90;;
10641;SDS011;5369;49.586;8.646;2022-08-16T09:58:19;7.43;;;6.30;;
10641;SDS011;5369;49.586;8.646;2022-08-16T10:00:47;6.67;;;5.93;;
10641;SDS011;5369;49.586;8.646;2022-08-16T10:03:14;8.27;;;6.30;;
10641;SDS011;5369;49.586;8.646;2022-08-16T10:05:41;6.73;;;5.67;;
10641;SDS011;5369;49.586;8.646;2022-08-16T10:08:07;7.47;;;5.77;;
10641;SDS011;5369;49.586;8.646;2022-08-16T10:10:34;6.90;;;6.20;;
10641;SDS011;5369;49.586;8.646;2022-08-16T10:13:00;6.90;;;5.53;;
10641;SDS011;5369;49.586;8.646;2022-08-16T10:15:40;5.20;;;4.70;;
10641;SDS011;5369;49.586;8.646;2022-08-16T10:18:07;5.83;;;4.87;;
10641;SDS011;5369;49.586;8.646;2022-08-16T10:20:35;5.47;;;4.97;;
10641;SDS011;5369;49.586;8.646;2022-08-16T10:23:03;5.73;;;5.20;;
10641;SDS011;5369;49.586;8.646;2022-08-16T10:25:29;6.10;;;5.43;;
10641;SDS011;5369;49.586;8.646;2022-08-16T10:27:55;6.23;;;4.73;;
10641;SDS011;5369;49.586;8.646;2022-08-16T10:30:21;5.90;;;5.30;;
10641;SDS011;5369;49.586;8.646;2022-08-16T10:32:48;6.73;;;5.30;;
10641;SDS011;5369;49.586;8.646;2022-08-16T10:35:14;6.20;;;5.60;;
10641;SDS011;5369;49.586;8.646;2022-08-16T10:37:40;6.10;;;5.50;;
10641;SDS011;5369;49.586;8.646;2022-08-16T10:40:07;6.33;;;5.10;;
10641;SDS011;5369;49.586;8.646;2022-08-16T10:42:34;6.77;;;5.30;;
10641;SDS011;5369;49.586;8.646;2022-08-16T10:45:00;5.83;;;4.90;;
10641;SDS011;5369;49.586;8.646;2022-08-16T10:47:27;8.43;;;5.00;;
10641;SDS011;5369;49.586;8.646;2022-08-16T10:49:53;5.37;;;4.80;;
10641;SDS011;5369;49.586;8.646;2022-08-16T10:52:20;5.00;;;4.60;;
10641;SDS011;5369;49.586;8.646;2022-08-16T10:54:47;6.70;;;4.50;;
10641;SDS011;5369;49.586;8.646;2022-08-16T10:57:13;4.53;;;4.20;;
10641;SDS011;5369;49.586;8.646;2022-08-16T10:59:40;4.40;;;4.00;;
10641;SDS011;5369;49.586;8.646;2022-08-16T11:02:07;4.57;;;4.17;;
10641;SDS011;5369;49.586;8.646;2022-08-16T11:04:34;4.77;;;4.20;;
10641;SDS011;5369;49.586;8.646;2022-08-16T11:07:00;5.17;;;4.30;;
10641;SDS011;5369;49.586;8.646;2022-08-16T11:09:27;4.80;;;4.30;;
10641;SDS011;5369;49.586;8.646;2022-08-16T11:11:53;5.90;;;4.77;;
10641;SDS011;5369;49.586;8.646;2022-08-16T11:14:19;4.93;;;4.50;;
10641;SDS011;5369;49.586;8.646;2022-08-16T11:16:46;5.13;;;4.70;;
10641;SDS011;5369;49.586;8.646;2022-08-16T11:19:12;4.73;;;4.30;;
10641;SDS011;5369;49.586;8.646;2022-08-16T11:21:42;5.33;;;4.53;;
10641;SDS011;5369;49.586;8.646;2022-08-16T11:24:09;4.77;;;4.17;;
10641;SDS011;5369;49.586;8.646;2022-08-16T11:26:35;5.73;;;4.70;;
10641;SDS011;5369;49.586;8.646;2022-08-16T11:29:01;5.27;;;4.60;;
10641;SDS011;5369;49.586;8.646;2022-08-16T11:31:27;7.50;;;4.87;;
10641;SDS011;5369;49.586;8.646;2022-08-16T11:33:54;6.00;;;4.50;;
10641;SDS011;5369;49.586;8.646;2022-08-16T11:36:20;4.70;;;4.30;;
10641;SDS011;5369;49.586;8.646;2022-08-16T11:38:46;4.93;;;4.40;;
10641;SDS011;5369;49.586;8.646;2022-08-16T11:41:12;5.70;;;4.57;;
10641;SDS011;5369;49.586;8.646;2022-08-16T11:43:39;5.33;;;4.77;;
10641;SDS011;5369;49.586;8.646;2022-08-16T11:46:12;4.90;;;4.40;;
10641;SDS011;5369;49.586;8.646;2022-08-16T11:48:39;5.17;;;4.33;;
10641;SDS011;5369;49.586;8.646;2022-08-16T11:51:05;4.33;;;3.93;;
10641;SDS011;5369;49.586;8.646;2022-08-16T11:53:32;5.10;;;4.60;;
10641;SDS011;5369;49.586;8.646;2022-08-16T11:55:59;5.33;;;4.83;;
10641;SDS011;5369;49.586;8.646;2022-08-16T11:58:26;5.23;;;4.43;;
10641;SDS011;5369;49.586;8.646;2022-08-16T12:00:53;4.70;;;4.30;;
10641;SDS011;5369;49.586;8.646;2022-08-16T12:03:20;5.63;;;4.47;;
10641;SDS011;5369;49.586;8.646;2022-08-16T12:05:47;4.43;;;4.13;;
10641;SDS011;5369;49.586;8.646;2022-08-16T12:08:13;4.40;;;4.00;;
10641;SDS011;5369;49.586;8.646;2022-08-16T12:10:41;4.30;;;4.00;;
10641;SDS011;5369;49.586;8.646;2022-08-16T12:13:09;5.37;;;3.60;;
10641;SDS011;5369;49.586;8.646;2022-08-16T12:15:36;3.80;;;3.50;;
10641;SDS011;5369;49.586;8.646;2022-08-16T12:18:03;3.70;;;3.40;;
10641;SDS011;5369;49.586;8.646;2022-08-16T12:20:31;3.77;;;3.47;;
10641;SDS011;5369;49.586;8.646;2022-08-16T12:22:57;4.87;;;3.97;;
10641;SDS011;5369;49.586;8.646;2022-08-16T12:25:25;3.70;;;3.40;;
10641;SDS011;5369;49.586;8.646;2022-08-16T12:27:52;6.73;;;3.93;;
10641;SDS011;5369;49.586;8.646;2022-08-16T12:30:20;3.30;;;3.00;;
10641;SDS011;5369;49.586;8.646;2022-08-16T12:32:47;4.40;;;3.97;;
10641;SDS011;5369;49.586;8.646;2022-08-16T12:35:14;4.10;;;3.57;;
10641;SDS011;5369;49.586;8.646;2022-08-16T12:37:41;4.83;;;3.93;;
10641;SDS011;5369;49.586;8.646;2022-08-16T12:40:08;3.53;;;3.23;;
10641;SDS011;5369;49.586;8.646;2022-08-16T12:42:35;3.90;;;3.60;;
10641;SDS011;5369;49.586;8.646;2022-08-16T12:45:06;4.03;;;3.37;;
10641;SDS011;5369;49.586;8.646;2022-08-16T12:47:33;4.00;;;3.60;;
10641;SDS011;5369;49.586;8.646;2022-08-16T12:50:18;3.43;;;3.20;;
10641;SDS011;5369;49.586;8.646;2022-08-16T12:52:44;3.53;;;3.00;;
10641;SDS011;5369;49.586;8.646;2022-08-16T12:55:10;3.30;;;3.10;;
10641;SDS011;5369;49.586;8.646;2022-08-16T12:57:37;21.73;;;19.60;;
10641;SDS011;5369;49.586;8.646;2022-08-16T13:00:05;6.43;;;5.83;;
10641;SDS011;5369;49.586;8.646;2022-08-16T13:02:39;6.13;;;4.60;;
10641;SDS011;5369;49.586;8.646;2022-08-16T13:05:05;5.03;;;4.53;;
10641;SDS011;5369;49.586;8.646;2022-08-16T13:07:32;6.00;;;3.90;;
10641;SDS011;5369;49.586;8.646;2022-08-16T13:09:58;3.83;;;3.40;;
10641;SDS011;5369;49.586;8.646;2022-08-16T13:12:34;3.63;;;3.33;;
10641;SDS011;5369;49.586;8.646;2022-08-16T13:15:03;5.37;;;3.60;;
10641;SDS011;5369;49.586;8.646;2022-08-16T13:17:30;3.97;;;3.60;;
10641;SDS011;5369;49.586;8.646;2022-08-16T13:19:56;4.53;;;3.40;;
10641;SDS011;5369;49.586;8.646;2022-08-16T13:22:25;5.63;;;3.60;;
10641;SDS011;5369;49.586;8.646;2022-08-16T13:24:52;3.70;;;3.40;;
10641;SDS011;5369;49.586;8.646;2022-08-16T13:27:19;4.90;;;3.63;;
10641;SDS011;5369;49.586;8.646;2022-08-16T13:29:45;3.60;;;3.30;;
10641;SDS011;5369;49.586;8.646;2022-08-16T13:32:11;3.90;;;3.60;;
10641;SDS011;5369;49.586;8.646;2022-08-16T13:34:37;4.00;;;3.60;;
10641;SDS011;5369;49.586;8.646;2022-08-16T13:37:04;4.13;;;3.30;;
10641;SDS011;5369;49.586;8.646;2022-08-16T13:39:30;3.93;;;3.20;;
10641;SDS011;5369;49.586;8.646;2022-08-16T13:41:57;5.37;;;3.20;;
10641;SDS011;5369;49.586;8.646;2022-08-16T13:44:26;4.10;;;2.80;;
10641;SDS011;5369;49.586;8.646;2022-08-16T13:46:52;3.70;;;2.60;;
10641;SDS011;5369;49.586;8.646;2022-08-16T13:49:21;3.95;;;2.75;;
10641;SDS011;5369;49.586;8.646;2022-08-16T13:51:47;3.27;;;2.80;;
10641;SDS011;5369;49.586;8.646;2022-08-16T13:54:13;5.53;;;3.20;;
10641;SDS011;5369;49.586;8.646;2022-08-16T13:56:40;3.00;;;2.80;;
10641;SDS011;5369;49.586;8.646;2022-08-16T13:59:06;3.73;;;2.80;;
10641;SDS011;5369;49.586;8.646;2022-08-16T14:01:33;5.13;;;3.13;;
10641;SDS011;5369;49.586;8.646;2022-08-16T14:03:59;3.27;;;3.00;;
10641;SDS011;5369;49.586;8.646;2022-08-16T14:06:26;3.30;;;2.87;;
10641;SDS011;5369;49.586;8.646;2022-08-16T14:08:52;3.40;;;3.00;;
10641;SDS011;5369;49.586;8.646;2022-08-16T14:11:18;3.37;;;3.07;;
10641;SDS011;5369;49.586;8.646;2022-08-16T14:13:45;4.27;;;3.27;;
10641;SDS011;5369;49.586;8.646;2022-08-16T14:16:11;3.27;;;2.93;;
10641;SDS011;5369;49.586;8.646;2022-08-16T14:18:38;3.37;;;2.87;;
10641;SDS011;5369;49.586;8.646;2022-08-16T14:21:04;4.93;;;3.23;;
10641;SDS011;5369;49.586;8.646;2022-08-16T14:23:30;3.63;;;3.22;;
10641;SDS011;5369;49.586;8.646;2022-08-16T14:25:57;3.20;;;2.90;;
10641;SDS011;5369;49.586;8.646;2022-08-16T14:28:23;2.85;;;2.58;;
10641;SDS011;5369;49.586;8.646;2022-08-16T14:30:51;4.07;;;2.60;;
10641;SDS011;5369;49.586;8.646;2022-08-16T14:33:18;5.25;;;2.78;;
10641;SDS011;5369;49.586;8.646;2022-08-16T14:35:44;3.05;;;2.75;;
10641;SDS011;5369;49.586;8.646;2022-08-16T14:38:10;3.13;;;2.33;;
10641;SDS011;5369;49.586;8.646;2022-08-16T14:40:37;4.90;;;2.97;;
10641;SDS011;5369;49.586;8.646;2022-08-16T14:43:03;2.75;;;2.50;;
10641;SDS011;5369;49.586;8.646;2022-08-16T14:45:29;2.47;;;2.28;;
10641;SDS011;5369;49.586;8.646;2022-08-16T14:47:55;4.97;;;2.80;;
10641;SDS011;5369;49.586;8.646;2022-08-16T14:50:23;3.33;;;2.70;;
10641;SDS011;5369;49.586;8.646;2022-08-16T14:52:54;4.63;;;2.80;;
10641;SDS011;5369;49.586;8.646;2022-08-16T14:55:21;4.00;;;2.90;;
10641;SDS011;5369;49.586;8.646;2022-08-16T14:57:47;3.40;;;3.20;;
10641;SDS011;5369;49.586;8.646;2022-08-16T15:00:13;3.27;;;2.80;;
10641;SDS011;5369;49.586;8.646;2022-08-16T15:02:42;3.87;;;3.57;;
10641;SDS011;5369;49.586;8.646;2022-08-16T15:05:10;5.37;;;3.00;;